Terminal Aerodrome Forecast
Issued by NWS

Current Version | Previous Version | Text Only | Print | Product List | Glossary Off
Versions: 1 2 3 4 5 6 7 8 9 10 11 12 13 14 15 16 17 18 19 20 21 22 23

381
FTUS41 KRLX 041510 AAA
TAFCKB
TAF AMD
KCKB 041510Z 0415/0512 00000KT P6SM OVC120
     FM041600 07005KT P6SM OVC070
     FM050200 15005KT P6SM -RA OVC040
     FM050400 20005KT 4SM -RA OVC030
     FM050700 21005KT 4SM -RA OVC008
     FM051100 26006KT P6SM OVC010=

USA.gov is the U.S. government's official web portal to all federal, state and local government web resources and services.